sensor_id;sensor_type;location;lat;lon;timestamp;pressure;altitude;pressure_sealevel;temperature;humidity
43691;BME280;29293;52.190;21.226;2023-09-19T00:01:20;99731.98;;;17.93;100.00
43691;BME280;29293;52.190;21.226;2023-09-19T00:16:30;99722.02;;;17.76;100.00
43691;BME280;29293;52.190;21.226;2023-09-19T00:31:39;99721.45;;;17.64;100.00
43691;BME280;29293;52.190;21.226;2023-09-19T00:46:46;99715.16;;;17.55;100.00
43691;BME280;29293;52.190;21.226;2023-09-19T01:01:57;99702.56;;;17.47;100.00
43691;BME280;29293;52.190;21.226;2023-09-19T01:17:14;99691.69;;;17.46;100.00
43691;BME280;29293;52.190;21.226;2023-09-19T01:32:25;99678.47;;;17.42;100.00
43691;BME280;29293;52.190;21.226;2023-09-19T01:47:37;99658.73;;;17.33;100.00
43691;BME280;29293;52.190;21.226;2023-09-19T02:02:48;99644.02;;;17.30;100.00
43691;BME280;29293;52.190;21.226;2023-09-19T02:17:57;99645.77;;;17.29;100.00
43691;BME280;29293;52.190;21.226;2023-09-19T02:33:06;99637.11;;;17.32;100.00
43691;BME280;29293;52.190;21.226;2023-09-19T02:48:14;99620.95;;;17.28;100.00
43691;BME280;29293;52.190;21.226;2023-09-19T03:03:22;99600.89;;;17.15;100.00
43691;BME280;29293;52.190;21.226;2023-09-19T03:18:31;99597.16;;;17.11;100.00
43691;BME280;29293;52.190;21.226;2023-09-19T03:33:38;99575.42;;;16.95;100.00
43691;BME280;29293;52.190;21.226;2023-09-19T03:48:45;99570.14;;;16.81;100.00
43691;BME280;29293;52.190;21.226;2023-09-19T04:03:53;99561.85;;;16.63;100.00
43691;BME280;29293;52.190;21.226;2023-09-19T04:19:01;99561.77;;;16.54;100.00
43691;BME280;29293;52.190;21.226;2023-09-19T04:34:09;99541.57;;;16.48;100.00
43691;BME280;29293;52.190;21.226;2023-09-19T04:49:20;99527.48;;;16.57;100.00
43691;BME280;29293;52.190;21.226;2023-09-19T05:04:29;99520.98;;;16.78;100.00
43691;BME280;29293;52.190;21.226;2023-09-19T05:19:37;99515.55;;;16.97;100.00
43691;BME280;29293;52.190;21.226;2023-09-19T05:34:44;99505.07;;;17.24;100.00
43691;BME280;29293;52.190;21.226;2023-09-19T05:49:54;99504.31;;;17.45;100.00
43691;BME280;29293;52.190;21.226;2023-09-19T06:05:02;99499.02;;;17.58;100.00
43691;BME280;29293;52.190;21.226;2023-09-19T06:20:12;99499.30;;;17.73;100.00
43691;BME280;29293;52.190;21.226;2023-09-19T06:35:21;99501.42;;;17.95;100.00
43691;BME280;29293;52.190;21.226;2023-09-19T06:50:28;99515.35;;;18.14;100.00
43691;BME280;29293;52.190;21.226;2023-09-19T07:05:37;99542.61;;;18.25;100.00
43691;BME280;29293;52.190;21.226;2023-09-19T07:20:46;99548.72;;;18.50;100.00
43691;BME280;29293;52.190;21.226;2023-09-19T07:35:56;99556.40;;;18.91;100.00
43691;BME280;29293;52.190;21.226;2023-09-19T07:51:07;99569.33;;;19.76;100.00
43691;BME280;29293;52.190;21.226;2023-09-19T08:06:15;99581.85;;;20.18;100.00
43691;BME280;29293;52.190;21.226;2023-09-19T08:21:26;99583.33;;;20.18;100.00
43691;BME280;29293;52.190;21.226;2023-09-19T08:36:35;99588.52;;;20.33;100.00
43691;BME280;29293;52.190;21.226;2023-09-19T08:51:45;99589.92;;;20.67;100.00
43691;BME280;29293;52.190;21.226;2023-09-19T09:06:54;99585.45;;;20.70;100.00
43691;BME280;29293;52.190;21.226;2023-09-19T09:22:12;99596.30;;;20.67;100.00
43691;BME280;29293;52.190;21.226;2023-09-19T09:37:22;99613.26;;;20.64;100.00
43691;BME280;29293;52.190;21.226;2023-09-19T09:52:46;99631.61;;;20.59;100.00
43691;BME280;29293;52.190;21.226;2023-09-19T10:07:54;99646.31;;;20.32;100.00
43691;BME280;29293;52.190;21.226;2023-09-19T10:23:10;99677.23;;;19.94;100.00
43691;BME280;29293;52.190;21.226;2023-09-19T10:38:38;99704.25;;;19.39;100.00
43691;BME280;29293;52.190;21.226;2023-09-19T10:53:59;99699.61;;;18.72;100.00
43691;BME280;29293;52.190;21.226;2023-09-19T11:09:13;99694.64;;;18.56;100.00
43691;BME280;29293;52.190;21.226;2023-09-19T11:24:29;99674.88;;;18.49;100.00
43691;BME280;29293;52.190;21.226;2023-09-19T11:40:08;99696.79;;;18.66;100.00
43691;BME280;29293;52.190;21.226;2023-09-19T11:55:22;99704.79;;;18.67;100.00
43691;BME280;29293;52.190;21.226;2023-09-19T12:10:30;99699.83;;;18.72;100.00
43691;BME280;29293;52.190;21.226;2023-09-19T12:25:44;99708.45;;;18.79;100.00
43691;BME280;29293;52.190;21.226;2023-09-19T12:56:43;99746.24;;;18.89;100.00
43691;BME280;29293;52.190;21.226;2023-09-19T13:11:53;99749.04;;;18.83;100.00
43691;BME280;29293;52.190;21.226;2023-09-19T13:27:00;99737.34;;;18.78;100.00
43691;BME280;29293;52.190;21.226;2023-09-19T13:42:11;99744.61;;;18.87;100.00
43691;BME280;29293;52.190;21.226;2023-09-19T13:57:28;99750.23;;;18.91;100.00
43691;BME280;29293;52.190;21.226;2023-09-19T14:12:41;99747.67;;;18.95;100.00
43691;BME280;29293;52.190;21.226;2023-09-19T14:27:51;99754.14;;;19.03;100.00
43691;BME280;29293;52.190;21.226;2023-09-19T14:43:00;99760.56;;;19.08;100.00
43691;BME280;29293;52.190;21.226;2023-09-19T14:58:10;99767.60;;;19.09;100.00
43691;BME280;29293;52.190;21.226;2023-09-19T15:13:16;99772.52;;;18.98;100.00
43691;BME280;29293;52.190;21.226;2023-09-19T15:28:26;99778.16;;;18.91;100.00
43691;BME280;29293;52.190;21.226;2023-09-19T15:43:45;99780.77;;;18.87;100.00
43691;BME280;29293;52.190;21.226;2023-09-19T15:58:56;99788.44;;;18.82;100.00
43691;BME280;29293;52.190;21.226;2023-09-19T16:14:16;99810.83;;;18.70;100.00
43691;BME280;29293;52.190;21.226;2023-09-19T16:29:28;99828.39;;;18.50;100.00
43691;BME280;29293;52.190;21.226;2023-09-19T16:44:37;99840.92;;;18.26;100.00
43691;BME280;29293;52.190;21.226;2023-09-19T16:59:44;99852.67;;;17.98;100.00
43691;BME280;29293;52.190;21.226;2023-09-19T17:14:52;99860.51;;;17.71;100.00
43691;BME280;29293;52.190;21.226;2023-09-19T17:30:00;99870.45;;;17.49;100.00
43691;BME280;29293;52.190;21.226;2023-09-19T17:45:09;99884.25;;;17.38;100.00
43691;BME280;29293;52.190;21.226;2023-09-19T18:00:17;99909.71;;;17.24;100.00
43691;BME280;29293;52.190;21.226;2023-09-19T18:15:24;99929.36;;;17.05;100.00
43691;BME280;29293;52.190;21.226;2023-09-19T18:30:39;99944.99;;;16.84;100.00
43691;BME280;29293;52.190;21.226;2023-09-19T18:45:55;99952.95;;;16.59;100.00
43691;BME280;29293;52.190;21.226;2023-09-19T19:01:04;99972.90;;;16.29;100.00
43691;BME280;29293;52.190;21.226;2023-09-19T19:16:12;99986.08;;;15.96;100.00
43691;BME280;29293;52.190;21.226;2023-09-19T19:31:19;99995.77;;;15.62;100.00
43691;BME280;29293;52.190;21.226;2023-09-19T19:46:28;100004.66;;;15.28;100.00
43691;BME280;29293;52.190;21.226;2023-09-19T20:01:35;100006.58;;;14.96;100.00
43691;BME280;29293;52.190;21.226;2023-09-19T20:16:43;100014.83;;;14.62;100.00
43691;BME280;29293;52.190;21.226;2023-09-19T20:31:51;100022.20;;;14.30;100.00
43691;BME280;29293;52.190;21.226;2023-09-19T20:46:59;100021.96;;;14.00;100.00
43691;BME280;29293;52.190;21.226;2023-09-19T21:02:08;100029.75;;;13.70;100.00
43691;BME280;29293;52.190;21.226;2023-09-19T21:17:17;100039.31;;;13.49;100.00
43691;BME280;29293;52.190;21.226;2023-09-19T21:32:24;100056.55;;;13.24;100.00
43691;BME280;29293;52.190;21.226;2023-09-19T21:47:31;100062.83;;;13.04;100.00
43691;BME280;29293;52.190;21.226;2023-09-19T22:02:38;100060.88;;;12.81;100.00
43691;BME280;29293;52.190;21.226;2023-09-19T22:17:45;100058.95;;;12.64;100.00
43691;BME280;29293;52.190;21.226;2023-09-19T22:32:52;100059.23;;;12.45;100.00
43691;BME280;29293;52.190;21.226;2023-09-19T22:48:00;100056.44;;;12.25;100.00
43691;BME280;29293;52.190;21.226;2023-09-19T23:03:07;100059.72;;;12.05;100.00
43691;BME280;29293;52.190;21.226;2023-09-19T23:18:15;100073.20;;;11.90;100.00
43691;BME280;29293;52.190;21.226;2023-09-19T23:33:24;100084.98;;;11.67;100.00
43691;BME280;29293;52.190;21.226;2023-09-19T23:48:31;100103.04;;;11.49;100.00
